Time;durP1;ratioP1;P1;durP2;ratioP2;P2;SDS_P1;SDS_P2;PMS_P1;PMS_P2;Temp;Humidity;BMP_temperature;BMP_pressure;BME280_temperature;BME280_humidity;BME280_pressure;Samples;Min_cycle;Max_cycle;Signal;HPM_P1;HPM_P2
2022/04/19 00:02:11;;;;;;;11.70;7.00;;;;;;;3.09;67.36;98963.44;103562;1299;25095;-28
2022/04/19 00:04:40;;;;;;;10.80;5.50;;;;;;;3.09;67.13;98962.44;103414;1301;24303;-25
2022/04/19 00:07:10;;;;;;;12.50;5.50;;;;;;;3.05;68.23;98961.03;103473;1300;24365;-28
2022/04/19 00:09:39;;;;;;;10.40;5.20;;;;;;;3.06;68.09;98963.58;103399;1302;23790;-29
2022/04/19 00:12:09;;;;;;;11.70;4.70;;;;;;;3.09;67.77;98958.51;103415;1302;23611;-29
2022/04/19 00:14:38;;;;;;;9.00;5.30;;;;;;;3.12;67.13;98956.94;103604;1300;24303;-24
2022/04/19 00:17:07;;;;;;;10.20;6.10;;;;;;;3.17;67.05;98954.27;103560;1300;24256;-29
2022/04/19 00:19:36;;;;;;;16.10;4.80;;;;;;;3.10;68.30;98956.95;103520;1300;22967;-28
2022/04/19 00:22:05;;;;;;;12.60;6.10;;;;;;;3.08;67.12;98954.86;103533;1300;24213;-29
2022/04/19 00:24:34;;;;;;;12.40;4.70;;;;;;;3.03;67.51;98956.70;103477;1300;22746;-28
2022/04/19 00:27:03;;;;;;;16.40;6.80;;;;;;;3.04;68.64;98954.45;103584;1300;22770;-28
2022/04/19 00:29:32;;;;;;;15.00;6.90;;;;;;;3.04;68.30;98951.60;103583;1300;23844;-28
2022/04/19 00:32:02;;;;;;;17.00;7.50;;;;;;;3.05;67.76;98948.52;103543;1300;22997;-25
2022/04/19 00:34:31;;;;;;;13.40;6.80;;;;;;;3.01;68.60;98948.95;103519;1300;23431;-28
2022/04/19 00:37:01;;;;;;;15.90;6.70;;;;;;;3.03;66.43;98946.40;103564;1300;22606;-30
2022/04/19 00:39:29;;;;;;;16.30;6.80;;;;;;;3.07;65.51;98942.07;103458;1302;26257;-28
2022/04/19 00:41:59;;;;;;;16.30;7.30;;;;;;;3.07;65.49;98940.17;103513;1300;23536;-28
2022/04/19 00:44:28;;;;;;;13.00;5.90;;;;;;;3.07;65.76;98938.02;103528;1300;23666;-25
2022/04/19 00:46:58;;;;;;;17.30;7.90;;;;;;;3.09;65.65;98932.16;103594;1300;25016;-25
2022/04/19 00:49:28;;;;;;;18.60;8.00;;;;;;;3.13;65.50;98930.48;103556;1300;24373;-27
2022/04/19 00:51:57;;;;;;;13.60;5.80;;;;;;;3.10;65.42;98929.10;103482;1300;24304;-27
2022/04/19 00:54:26;;;;;;;17.00;6.00;;;;;;;3.06;66.18;98923.12;103419;1301;24243;-28
2022/04/19 00:56:55;;;;;;;11.10;5.20;;;;;;;3.18;65.12;98920.39;103574;1300;23846;-27
2022/04/19 00:59:24;;;;;;;11.50;6.00;;;;;;;3.23;65.23;98918.63;103618;1300;22812;-30
2022/04/19 01:01:53;;;;;;;9.60;5.80;;;;;;;3.25;64.71;98918.77;103575;1300;25015;-27
2022/04/19 01:04:22;;;;;;;9.60;4.60;;;;;;;3.23;64.96;98912.60;103590;1300;22614;-24
2022/04/19 01:06:51;;;;;;;10.10;4.60;;;;;;;3.33;64.73;98913.25;103537;1300;22505;-25
2022/04/19 01:09:21;;;;;;;11.70;5.80;;;;;;;3.38;64.21;98915.33;103613;1300;22531;-27
2022/04/19 01:14:24;;;;;;;12.90;6.20;;;;;;;3.50;63.51;98907.29;103543;1300;23827;-28
2022/04/19 01:16:54;;;;;;;16.10;7.10;;;;;;;3.55;63.42;98910.67;103414;1300;24421;-28
2022/04/19 01:19:23;;;;;;;9.30;3.30;;;;;;;3.61;63.30;98907.73;103586;1300;24249;-25
2022/04/19 01:21:54;;;;;;;11.80;4.90;;;;;;;3.65;62.71;98909.77;103594;1300;24976;-26
2022/04/19 01:24:23;;;;;;;12.90;5.90;;;;;;;3.73;62.65;98909.30;103563;1300;26113;-26
2022/04/19 01:26:54;;;;;;;10.00;4.40;;;;;;;3.75;62.14;98906.25;103556;1300;23246;-26
2022/04/19 01:29:23;;;;;;;11.70;4.70;;;;;;;3.79;62.49;98899.29;103578;1300;24952;-29
2022/04/19 01:31:52;;;;;;;9.40;5.60;;;;;;;3.84;61.98;98895.90;103579;1300;24213;-25
2022/04/19 01:34:21;;;;;;;7.80;4.40;;;;;;;3.86;61.79;98895.14;103528;1300;24238;-28
2022/04/19 01:36:50;;;;;;;8.90;5.50;;;;;;;3.89;61.72;98887.04;103621;1300;24216;-28
2022/04/19 01:40:16;;;;;;;11.60;4.40;;;;;;;3.86;61.69;98883.64;103629;1300;24090;-25
2022/04/19 01:42:09;;;;;;;18.20;5.50;;;;;;;3.87;61.57;98884.71;103546;1300;22502;-25
2022/04/19 01:44:38;;;;;;;11.80;5.00;;;;;;;3.86;61.81;98878.66;103582;1300;23629;-27
2022/04/19 01:47:07;;;;;;;13.00;4.50;;;;;;;3.87;61.60;98876.64;103620;1300;25251;-25
2022/04/19 01:49:37;;;;;;;16.40;5.20;;;;;;;3.88;61.36;98882.91;103529;1300;24387;-23
2022/04/19 01:52:08;;;;;;;11.80;5.60;;;;;;;3.88;61.25;98876.67;103526;1300;22518;-30
2022/04/19 01:54:37;;;;;;;18.40;7.50;;;;;;;3.89;61.08;98877.30;103474;1300;23953;-30
2022/04/19 01:57:06;;;;;;;16.30;8.00;;;;;;;3.87;61.01;98871.33;103572;1300;24016;-28
2022/04/19 01:59:35;;;;;;;26.20;9.70;;;;;;;3.87;60.90;98870.16;103609;1300;23739;-28
2022/04/19 02:02:04;;;;;;;21.40;10.40;;;;;;;3.84;61.29;98867.91;103545;1300;25352;-30
2022/04/19 02:04:33;;;;;;;17.60;7.70;;;;;;;3.80;61.25;98864.83;103563;1300;23789;-28
2022/04/19 02:07:04;;;;;;;15.10;8.20;;;;;;;3.77;61.35;98861.90;103418;1302;22837;-25
2022/04/19 02:09:34;;;;;;;21.90;7.90;;;;;;;3.70;61.94;98859.84;103454;1302;25510;-29
2022/04/19 02:12:04;;;;;;;16.90;7.90;;;;;;;3.68;62.04;98859.68;103433;1300;23642;-30
2022/04/19 02:14:33;;;;;;;8.00;5.20;;;;;;;3.64;62.62;98853.93;103446;1301;22918;-25
2022/04/19 02:17:03;;;;;;;15.40;6.00;;;;;;;3.61;63.04;98849.09;103534;1301;22796;-25
2022/04/19 02:19:33;;;;;;;11.60;6.20;;;;;;;3.64;62.48;98849.84;103559;1301;24770;-25
2022/04/19 02:22:05;;;;;;;12.40;6.20;;;;;;;3.59;62.53;98851.83;103519;1300;24240;-30
2022/04/19 02:24:34;;;;;;;10.60;5.30;;;;;;;3.52;62.89;98855.73;103562;1300;22507;-27
2022/04/19 02:27:05;;;;;;;9.50;4.70;;;;;;;3.46;63.43;98860.13;103574;1300;23886;-25
2022/04/19 02:29:34;;;;;;;9.10;4.70;;;;;;;3.46;63.27;98856.44;103551;1300;26270;-28
2022/04/19 02:32:04;;;;;;;6.60;4.20;;;;;;;3.44;63.46;98858.34;103535;1300;23510;-24
2022/04/19 02:34:33;;;;;;;13.70;5.60;;;;;;;3.38;64.29;98856.06;103609;1300;23849;-25
2022/04/19 02:37:02;;;;;;;15.00;6.00;;;;;;;3.38;64.09;98855.10;103566;1300;22705;-30
2022/04/19 02:39:31;;;;;;;10.70;4.70;;;;;;;3.40;63.72;98859.02;103588;1300;24404;-25
2022/04/19 02:42:00;;;;;;;6.80;3.90;;;;;;;3.37;63.93;98853.90;103531;1301;23898;-31
2022/04/19 02:44:29;;;;;;;14.10;6.50;;;;;;;3.36;63.88;98854.80;103424;1300;22630;-29
2022/04/19 02:46:58;;;;;;;14.50;5.90;;;;;;;3.34;64.07;98854.70;103562;1301;24260;-28
2022/04/19 02:49:27;;;;;;;11.70;4.50;;;;;;;3.33;64.21;98853.57;103506;1300;25261;-29
2022/04/19 02:51:56;;;;;;;9.30;5.30;;;;;;;3.36;63.64;98852.70;103575;1300;22635;-29
2022/04/19 02:54:25;;;;;;;11.50;5.80;;;;;;;3.34;63.76;98852.08;103601;1300;22509;-30
2022/04/19 02:56:54;;;;;;;15.00;5.20;;;;;;;3.29;64.16;98852.05;103600;1300;24268;-29
2022/04/19 02:59:24;;;;;;;9.50;5.50;;;;;;;3.29;64.17;98850.48;103570;1300;24981;-24
2022/04/19 03:01:53;;;;;;;7.70;4.20;;;;;;;3.29;64.33;98851.10;103539;1300;22495;-27
2022/04/19 03:04:22;;;;;;;9.60;4.50;;;;;;;3.31;64.27;98847.10;103635;1300;24004;-30
2022/04/19 03:06:51;;;;;;;12.90;4.90;;;;;;;3.28;64.39;98848.75;103575;1300;25124;-29
2022/04/19 03:09:19;;;;;;;8.00;4.10;;;;;;;3.26;64.26;98847.55;103492;1300;24212;-29
2022/04/19 03:11:48;;;;;;;14.40;4.90;;;;;;;3.27;64.40;98847.27;103550;1300;23791;-27
2022/04/19 03:14:17;;;;;;;21.30;4.80;;;;;;;3.23;64.68;98845.73;103596;1300;23813;-27
2022/04/19 03:16:46;;;;;;;9.50;5.20;;;;;;;3.22;64.80;98845.18;103556;1300;24253;-28
2022/04/19 03:19:16;;;;;;;9.50;4.40;;;;;;;3.24;64.82;98840.52;103565;1300;24990;-25
2022/04/19 03:21:45;;;;;;;25.70;4.10;;;;;;;3.24;65.23;98834.85;103517;1300;24020;-26
2022/04/19 03:29:20;;;;;;;6.70;3.70;;;;;;;3.28;64.82;98837.64;103599;1300;23605;-29
2022/04/19 03:31:49;;;;;;;7.90;3.90;;;;;;;3.27;64.61;98840.73;103575;1300;22896;-28
2022/04/19 03:34:18;;;;;;;7.10;3.10;;;;;;;3.23;64.56;98843.46;103602;1300;24364;-26
2022/04/19 03:36:47;;;;;;;6.00;3.40;;;;;;;3.33;64.23;98841.90;103577;1300;23002;-28
2022/04/19 03:39:16;;;;;;;7.00;4.20;;;;;;;3.55;63.49;98839.85;103597;1300;22630;-25
2022/04/19 03:41:45;;;;;;;12.10;4.50;;;;;;;3.47;64.53;98837.55;103551;1300;23791;-25
2022/04/19 03:44:14;;;;;;;5.60;3.40;;;;;;;3.25;65.89;98841.77;103592;1300;24197;-28
2022/04/19 03:49:16;;;;;;;5.70;2.80;;;;;;;3.22;65.78;98837.00;103558;1300;25186;-27
2022/04/19 03:51:45;;;;;;;13.50;4.20;;;;;;;3.19;66.11;98837.13;103553;1300;23614;-29
2022/04/19 03:54:14;;;;;;;7.10;3.60;;;;;;;3.09;66.87;98840.88;103553;1300;22503;-27
2022/04/19 03:56:43;;;;;;;7.50;3.40;;;;;;;3.05;67.21;98842.50;103520;1300;23639;-26
2022/04/19 03:59:12;;;;;;;8.60;4.10;;;;;;;3.01;67.84;98841.36;103614;1300;23938;-25
2022/04/19 04:01:42;;;;;;;6.20;3.50;;;;;;;2.95;67.22;98842.90;103569;1300;22496;-25
2022/04/19 04:04:11;;;;;;;5.80;3.20;;;;;;;2.90;67.59;98846.27;103547;1300;22632;-26
2022/04/19 04:06:41;;;;;;;6.60;3.60;;;;;;;2.90;67.73;98843.63;103634;1300;22499;-30
2022/04/19 04:09:10;;;;;;;4.70;3.10;;;;;;;2.96;68.92;98853.69;103519;1300;23937;-30
2022/04/19 04:11:38;;;;;;;5.70;2.90;;;;;;;3.06;68.30;98853.95;103612;1300;25110;-27
2022/04/19 04:14:08;;;;;;;6.50;2.50;;;;;;;3.08;67.47;98859.42;103351;1300;273886;-28
2022/04/19 04:16:37;;;;;;;5.50;3.40;;;;;;;3.02;67.09;98855.75;103557;1300;22956;-27
2022/04/19 04:19:06;;;;;;;9.20;4.60;;;;;;;3.02;67.38;98859.15;103579;1300;23648;-28
2022/04/19 04:21:35;;;;;;;6.10;3.00;;;;;;;2.99;67.81;98857.54;103576;1300;23634;-25
2022/04/19 04:24:04;;;;;;;9.00;4.80;;;;;;;3.01;66.81;98857.45;103533;1300;22497;-29
2022/04/19 04:26:33;;;;;;;11.90;4.20;;;;;;;2.98;66.81;98860.23;103569;1300;24288;-29
2022/04/19 04:29:02;;;;;;;11.80;4.30;;;;;;;2.95;66.73;98861.11;103540;1300;24266;-28
2022/04/19 04:31:31;;;;;;;6.20;2.60;;;;;;;2.97;67.03;98865.67;103564;1300;22512;-24
2022/04/19 04:34:00;;;;;;;7.40;3.90;;;;;;;3.00;66.62;98861.32;103579;1300;23828;-28
2022/04/19 04:36:29;;;;;;;7.90;4.90;;;;;;;2.99;66.67;98860.52;103599;1300;24974;-28
2022/04/19 04:38:58;;;;;;;8.30;3.20;;;;;;;2.99;66.54;98861.25;103566;1300;24228;-25
2022/04/19 04:41:27;;;;;;;4.20;3.00;;;;;;;2.97;67.81;98856.64;103591;1300;23784;-27
2022/04/19 04:43:56;;;;;;;8.70;3.80;;;;;;;2.96;69.06;98854.98;103447;1301;22812;-25
2022/04/19 04:51:30;;;;;;;8.00;4.30;;;;;;;2.83;73.78;98852.45;103646;1300;24218;-30
2022/04/19 04:53:59;;;;;;;13.50;5.80;;;;;;;2.79;74.68;98847.92;103406;1301;24985;-25
2022/04/19 04:56:28;;;;;;;14.10;5.70;;;;;;;2.76;75.73;98847.52;103540;1300;24316;-25
2022/04/19 04:58:57;;;;;;;8.90;5.00;;;;;;;2.72;76.57;98852.90;103557;1300;24199;-24
2022/04/19 05:01:26;;;;;;;6.90;4.30;;;;;;;2.69;76.91;98847.00;103516;1300;23540;-26
2022/04/19 05:03:55;;;;;;;14.30;5.90;;;;;;;2.64;78.66;98845.25;103585;1300;23941;-29
2022/04/19 05:06:24;;;;;;;14.30;7.50;;;;;;;2.65;76.94;98843.00;103603;1300;23615;-29
2022/04/19 05:08:53;;;;;;;9.30;6.10;;;;;;;2.70;73.97;98832.39;103573;1300;22680;-28
2022/04/19 05:11:22;;;;;;;9.60;5.90;;;;;;;2.71;73.62;98828.31;103615;1300;22504;-28
2022/04/19 05:13:51;;;;;;;9.20;5.70;;;;;;;2.69;74.27;98829.48;103551;1300;23602;-24
2022/04/19 05:16:20;;;;;;;10.60;5.80;;;;;;;2.54;75.18;98829.14;103480;1302;24268;-31
2022/04/19 05:18:49;;;;;;;15.30;6.40;;;;;;;2.47;75.65;98829.02;103538;1300;24090;-28
2022/04/19 05:21:18;;;;;;;13.20;6.20;;;;;;;2.45;77.06;98832.35;103434;1300;24232;-24
2022/04/19 05:23:47;;;;;;;19.80;5.90;;;;;;;2.52;76.12;98830.20;103535;1300;24217;-25
2022/04/19 05:26:16;;;;;;;5.40;4.00;;;;;;;2.43;78.37;98831.88;103535;1300;24340;-30
2022/04/19 05:28:45;;;;;;;7.10;3.70;;;;;;;2.46;78.32;98828.55;103545;1300;22980;-25
2022/04/19 05:31:14;;;;;;;7.80;4.20;;;;;;;2.47;78.08;98830.43;103570;1300;23801;-24
2022/04/19 05:33:43;;;;;;;7.20;3.70;;;;;;;2.50;77.22;98827.47;103506;1300;22529;-28
2022/04/19 05:36:12;;;;;;;7.50;5.10;;;;;;;2.48;78.24;98826.23;103545;1300;25172;-29
2022/04/19 05:38:41;;;;;;;8.20;4.60;;;;;;;2.52;78.88;98829.86;103614;1300;22632;-23
2022/04/19 05:41:10;;;;;;;19.70;4.70;;;;;;;2.65;77.31;98833.66;103636;1300;25228;-28
2022/04/19 05:43:39;;;;;;;6.40;4.20;;;;;;;2.62;78.84;98836.30;103551;1301;24281;-28
2022/04/19 05:46:08;;;;;;;13.00;4.70;;;;;;;2.70;78.40;98834.21;103670;1300;24251;-24
2022/04/19 05:48:37;;;;;;;7.00;3.50;;;;;;;2.73;78.58;98830.88;103572;1300;23735;-28
2022/04/19 05:51:06;;;;;;;7.60;4.80;;;;;;;2.79;78.00;98830.57;103594;1300;22833;-28
2022/04/19 05:53:35;;;;;;;7.60;4.30;;;;;;;2.87;77.79;98833.83;103563;1300;23907;-28
2022/04/19 05:56:04;;;;;;;10.80;6.40;;;;;;;2.84;78.00;98839.15;103566;1300;24225;-28
2022/04/19 05:58:33;;;;;;;11.00;6.70;;;;;;;2.83;79.18;98838.73;103535;1300;23812;-28
2022/04/19 06:01:02;;;;;;;7.80;4.10;;;;;;;2.85;78.73;98837.80;103535;1300;23594;-24
2022/04/19 06:06:06;;;;;;;40.40;8.40;;;;;;;3.00;78.34;98838.45;103554;1300;25105;-26
2022/04/19 06:08:35;;;;;;;18.60;5.80;;;;;;;3.06;78.12;98842.56;103629;1300;24216;-27
2022/04/19 06:11:05;;;;;;;10.90;5.80;;;;;;;2.96;77.71;98841.42;103396;1302;24221;-28
2022/04/19 06:13:34;;;;;;;13.80;6.40;;;;;;;2.88;78.79;98843.67;103531;1300;23631;-28
2022/04/19 06:16:03;;;;;;;9.50;4.60;;;;;;;2.88;78.70;98846.14;103564;1300;24263;-28
2022/04/19 06:18:33;;;;;;;13.30;5.60;;;;;;;2.88;79.36;98847.16;103546;1300;23837;-28
2022/04/19 06:21:04;;;;;;;25.20;8.40;;;;;;;2.94;79.80;98846.95;103564;1300;24221;-29
2022/04/19 06:23:34;;;;;;;14.50;6.80;;;;;;;2.93;79.54;98845.20;103618;1300;25576;-29
2022/04/19 06:26:03;;;;;;;5.50;3.90;;;;;;;2.95;79.61;98843.08;103672;1300;23598;-28
2022/04/19 06:28:32;;;;;;;4.50;3.20;;;;;;;2.95;80.16;98844.36;103514;1300;23763;-28
2022/04/19 06:31:01;;;;;;;3.90;2.80;;;;;;;2.93;80.26;98845.98;103622;1300;23374;-29
2022/04/19 06:33:31;;;;;;;6.40;2.90;;;;;;;2.97;80.00;98843.38;103662;1300;23433;-28
2022/04/19 06:36:02;;;;;;;20.50;5.70;;;;;;;2.99;80.40;98844.91;103667;1300;24244;-29
2022/04/19 06:38:31;;;;;;;10.30;5.00;;;;;;;3.12;78.84;98846.90;103547;1300;26252;-30
2022/04/19 06:41:01;;;;;;;8.00;3.60;;;;;;;2.99;80.72;98851.15;103586;1300;22501;-30
2022/04/19 06:43:31;;;;;;;8.40;4.80;;;;;;;2.97;81.35;98848.65;103434;1301;23608;-28
2022/04/19 06:46:00;;;;;;;10.40;4.50;;;;;;;2.99;80.17;98849.02;103552;1300;25093;-28
2022/04/19 06:48:29;;;;;;;13.80;6.50;;;;;;;2.91;81.09;98850.10;103585;1300;25232;-28
2022/04/19 06:50:58;;;;;;;11.10;6.40;;;;;;;2.93;80.79;98850.52;103565;1300;22803;-25
2022/04/19 06:53:30;;;;;;;10.60;6.10;;;;;;;2.84;81.45;98853.98;103521;1300;22527;-25
2022/04/19 06:55:59;;;;;;;14.10;7.20;;;;;;;2.77;81.99;98857.64;103582;1300;25359;-24
2022/04/19 06:58:27;;;;;;;11.00;6.80;;;;;;;2.79;82.36;98860.15;103585;1300;25400;-27
2022/04/19 07:00:56;;;;;;;16.80;8.50;;;;;;;2.73;82.76;98863.52;103601;1300;23751;-29
2022/04/19 07:03:25;;;;;;;17.20;8.50;;;;;;;2.64;83.49;98866.66;103449;1302;23920;-28
2022/04/19 07:05:54;;;;;;;32.20;12.80;;;;;;;2.62;85.32;98867.24;103636;1300;22553;-28
2022/04/19 07:08:23;;;;;;;23.60;13.10;;;;;;;2.75;85.13;98870.92;103532;1300;24280;-22
2022/04/19 07:10:52;;;;;;;9.90;6.30;;;;;;;2.81;84.75;98874.23;103492;1302;23781;-28
2022/04/19 07:13:21;;;;;;;11.30;5.80;;;;;;;2.69;85.56;98871.27;103575;1300;23927;-28
2022/04/19 07:15:51;;;;;;;8.70;6.50;;;;;;;2.64;86.77;98874.57;103586;1300;23885;-28
2022/04/19 07:18:23;;;;;;;10.00;5.90;;;;;;;2.71;86.62;98875.47;103577;1300;24271;-28
2022/04/19 07:28:33;;;;;;;7.30;4.20;;;;;;;2.12;88.77;98886.41;103560;1300;22825;-29
2022/04/19 07:31:03;;;;;;;7.00;4.00;;;;;;;2.02;89.90;98887.46;103586;1300;22523;-25
2022/04/19 07:33:37;;;;;;;8.20;4.40;;;;;;;2.00;90.02;98887.69;103625;1300;22501;-28
2022/04/19 07:36:06;;;;;;;10.50;5.50;;;;;;;2.08;89.54;98891.45;103580;1300;23263;-30
2022/04/19 07:38:35;;;;;;;11.80;5.40;;;;;;;2.04;89.69;98892.02;103537;1300;23951;-30
2022/04/19 07:41:05;;;;;;;8.90;4.40;;;;;;;2.00;89.47;98888.71;103565;1300;23586;-28
2022/04/19 07:43:34;;;;;;;15.20;4.00;;;;;;;2.03;89.67;98892.17;103543;1300;23052;-29
2022/04/19 07:46:04;;;;;;;10.80;3.80;;;;;;;2.07;89.57;98897.88;103628;1300;24240;-26
2022/04/19 07:48:33;;;;;;;5.60;4.00;;;;;;;2.02;89.53;98895.25;103400;1302;24264;-28
2022/04/19 07:51:03;;;;;;;7.50;3.40;;;;;;;2.08;89.09;98892.47;103619;1300;24213;-25
2022/04/19 07:53:32;;;;;;;4.20;2.50;;;;;;;2.05;88.94;98895.79;103627;1302;23589;-28
2022/04/19 07:56:01;;;;;;;22.70;7.00;;;;;;;2.44;87.46;98894.88;103475;1300;24228;-27
2022/04/19 07:58:30;;;;;;;41.80;9.30;;;;;;;2.45;87.27;98899.02;103583;1300;23876;-28
2022/04/19 08:01:00;;;;;;;31.40;8.40;;;;;;;2.63;86.69;98895.58;103563;1300;25010;-24
2022/04/19 08:03:29;;;;;;;10.80;3.70;;;;;;;2.70;85.65;98904.20;103544;1301;23955;-28
2022/04/19 08:05:58;;;;;;;7.90;2.40;;;;;;;2.67;86.40;98903.09;103594;1300;24247;-28
2022/04/19 08:08:27;;;;;;;2.60;1.70;;;;;;;2.55;86.77;98903.77;103612;1302;22733;-28
2022/04/19 08:10:56;;;;;;;3.80;1.70;;;;;;;2.53;87.25;98909.34;103572;1300;22520;-28
2022/04/19 08:13:25;;;;;;;4.60;3.30;;;;;;;2.79;86.51;98909.45;103551;1302;22847;-27
2022/04/19 08:15:54;;;;;;;6.20;2.80;;;;;;;3.17;84.84;98913.25;103632;1302;22574;-29
2022/04/19 08:18:23;;;;;;;8.10;2.70;;;;;;;3.15;84.72;98917.94;103527;1302;23823;-25
2022/04/19 08:20:52;;;;;;;9.30;2.90;;;;;;;3.27;84.44;98919.81;103592;1300;22515;-28
2022/04/19 08:23:21;;;;;;;8.40;3.10;;;;;;;3.40;83.59;98924.09;103522;1300;22514;-28
2022/04/19 08:25:50;;;;;;;3.10;1.30;;;;;;;3.44;83.29;98924.96;103473;1300;24300;-25
2022/04/19 08:28:19;;;;;;;4.00;1.90;;;;;;;3.49;82.97;98925.46;103410;1301;24279;-28
2022/04/19 08:30:49;;;;;;;5.90;2.00;;;;;;;3.41;82.91;98923.66;103639;1302;22497;-25
2022/04/19 08:33:18;;;;;;;2.30;1.50;;;;;;;3.38;83.59;98925.77;103574;1300;24220;-25
2022/04/19 08:35:47;;;;;;;13.00;3.40;;;;;;;3.52;83.26;98924.97;103510;1300;24215;-25
2022/04/19 08:38:16;;;;;;;3.30;2.30;;;;;;;3.82;81.72;98927.70;103515;1302;22607;-28
2022/04/19 08:40:45;;;;;;;16.70;5.50;;;;;;;3.87;80.15;98926.11;103599;1300;22516;-25
2022/04/19 08:43:14;;;;;;;5.80;2.80;;;;;;;3.75;80.96;98926.40;103598;1302;23740;-25
2022/04/19 08:45:43;;;;;;;3.20;2.30;;;;;;;3.92;79.65;98929.84;103451;1302;22841;-28
2022/04/19 08:48:15;;;;;;;4.30;2.10;;;;;;;3.90;80.31;98931.56;103610;1300;22591;-25
2022/04/19 08:50:46;;;;;;;6.90;2.40;;;;;;;3.83;80.99;98935.52;103539;1302;22503;-25
2022/04/19 08:58:20;;;;;;;12.50;3.90;;;;;;;3.96;79.87;98947.20;103495;1300;24366;-28
2022/04/19 09:00:49;;;;;;;5.70;3.20;;;;;;;3.88;80.50;98950.89;103551;1300;22502;-24
2022/04/19 09:03:19;;;;;;;12.60;5.60;;;;;;;4.31;79.48;98949.39;103555;1300;22631;-28
2022/04/19 09:05:50;;;;;;;10.10;6.70;;;;;;;4.31;78.69;98953.45;103575;1300;22798;-30
2022/04/19 09:08:19;;;;;;;7.10;4.60;;;;;;;4.32;79.09;98955.44;103578;1301;25210;-27
2022/04/19 09:10:50;;;;;;;6.90;4.70;;;;;;;4.45;77.77;98957.98;103561;1300;22513;-28
2022/04/19 09:13:21;;;;;;;16.60;6.80;;;;;;;4.22;78.34;98960.64;103595;1301;22518;-25
2022/04/19 09:15:52;;;;;;;13.10;8.20;;;;;;;4.13;79.61;98963.39;103617;1302;22629;-27
2022/04/19 09:18:29;;;;;;;27.10;9.20;;;;;;;4.13;79.25;98970.67;103622;1300;25339;-24
2022/04/19 09:20:59;;;;;;;12.60;7.20;;;;;;;4.19;79.69;98973.23;103545;1300;22522;-24
2022/04/19 09:23:29;;;;;;;6.50;4.70;;;;;;;4.34;78.96;98969.16;103566;1301;23570;-25
2022/04/19 09:26:00;;;;;;;10.10;5.80;;;;;;;4.45;78.24;98973.67;103533;1300;24218;-25
2022/04/19 09:28:29;;;;;;;14.00;7.60;;;;;;;4.52;78.25;98972.15;103578;1300;24012;-29
2022/04/19 09:30:59;;;;;;;7.40;6.10;;;;;;;4.41;79.73;98978.92;103577;1302;23815;-24
2022/04/19 09:33:29;;;;;;;9.60;6.00;;;;;;;4.77;78.67;98981.61;103598;1300;23799;-28
2022/04/19 09:35:59;;;;;;;14.90;6.90;;;;;;;4.97;78.31;98979.00;103529;1300;24399;-24
2022/04/19 09:38:32;;;;;;;11.50;7.20;;;;;;;5.11;77.69;98983.32;103558;1300;23603;-30
2022/04/19 09:41:02;;;;;;;9.10;5.70;;;;;;;5.36;76.57;98981.31;103544;1299;23591;-28
2022/04/19 09:43:32;;;;;;;9.50;6.70;;;;;;;5.79;73.96;98985.11;103581;1300;24151;-28
2022/04/19 09:46:03;;;;;;;6.60;5.20;;;;;;;5.63;74.04;98982.22;103548;1300;25213;-25
2022/04/19 09:48:34;;;;;;;10.80;6.60;;;;;;;5.77;74.14;98985.56;103595;1300;25228;-28
2022/04/19 09:51:05;;;;;;;14.10;6.10;;;;;;;5.89;74.70;98989.52;103469;1301;25313;-25
2022/04/19 09:53:38;;;;;;;11.50;7.40;;;;;;;6.18;74.16;98987.21;103568;1300;23773;-28
2022/04/19 09:56:08;;;;;;;;;;;;;;;6.49;72.57;98986.08;103618;1300;24200;-25
2022/04/19 09:58:38;;;;;;;17.10;9.60;;;;;;;6.50;71.72;98988.08;103538;1300;23577;-25
2022/04/19 10:01:07;;;;;;;35.80;6.80;;;;;;;6.23;71.37;98999.64;103532;1300;22816;-24
2022/04/19 10:08:41;;;;;;;13.80;8.50;;;;;;;5.93;73.95;99000.14;103566;1299;23681;-24
2022/04/19 10:11:10;;;;;;;12.80;6.10;;;;;;;6.46;71.63;98995.35;103555;1300;22797;-28
2022/04/19 10:13:39;;;;;;;12.10;8.30;;;;;;;6.29;72.27;99001.99;103583;1302;22604;-25
2022/04/19 10:16:11;;;;;;;12.30;8.10;;;;;;;6.44;71.32;99000.64;103531;1302;22812;-30
2022/04/19 10:18:41;;;;;;;7.90;6.50;;;;;;;6.21;73.37;99000.98;103629;1300;22521;-24
2022/04/19 10:21:12;;;;;;;13.80;9.10;;;;;;;6.20;74.31;98996.70;103692;1300;24249;-28
2022/04/19 10:23:41;;;;;;;8.00;6.10;;;;;;;6.62;73.00;98999.91;103603;1300;25006;-25
2022/04/19 10:26:12;;;;;;;9.70;6.70;;;;;;;6.81;71.19;98997.77;103578;1300;22912;-25
2022/04/19 10:28:41;;;;;;;12.60;8.50;;;;;;;6.48;70.37;99010.81;103549;1300;25382;-28
2022/04/19 10:31:10;;;;;;;10.90;7.60;;;;;;;6.52;71.06;99009.65;103615;1302;24265;-28
2022/04/19 10:33:43;;;;;;;11.20;9.00;;;;;;;6.82;71.03;99004.10;103576;1300;22517;-29
2022/04/19 10:36:14;;;;;;;9.20;6.10;;;;;;;6.95;70.59;99008.18;103510;1300;25014;-25
2022/04/19 10:38:44;;;;;;;12.80;7.40;;;;;;;6.94;70.13;99007.44;103603;1302;25229;-25
2022/04/19 10:41:37;;;;;;;8.10;6.50;;;;;;;6.88;70.34;99010.14;103556;1301;26315;-26
2022/04/19 10:44:13;;;;;;;9.40;7.20;;;;;;;7.39;68.97;99020.27;103603;1300;25109;-28
2022/04/19 10:46:42;;;;;;;7.90;6.00;;;;;;;7.28;70.07;99022.33;103512;1302;22643;-24
2022/04/19 10:49:18;;;;;;;7.60;6.40;;;;;;;7.76;68.22;99022.67;103562;1300;22495;-27
2022/04/19 10:51:47;;;;;;;8.40;5.80;;;;;;;7.62;67.61;99025.13;103548;1300;24231;-27
2022/04/19 10:54:16;;;;;;;7.30;6.50;;;;;;;7.60;68.30;99025.02;103540;1302;23762;-24
2022/04/19 10:56:52;;;;;;;6.70;6.00;;;;;;;7.64;67.38;99028.67;103544;1300;24337;-27
2022/04/19 10:59:21;;;;;;;10.30;5.30;;;;;;;7.25;68.40;99031.58;103553;1300;22514;-26
2022/04/19 11:01:50;;;;;;;8.80;7.30;;;;;;;7.13;69.91;99031.59;103571;1302;24973;-26
2022/04/19 11:04:26;;;;;;;12.30;6.40;;;;;;;7.29;69.35;99029.96;103568;1300;25013;-27
2022/04/19 11:06:56;;;;;;;10.60;6.80;;;;;;;7.28;69.96;99027.44;103527;1300;24265;-25
2022/04/19 11:09:27;;;;;;;8.30;5.40;;;;;;;7.50;69.17;99025.84;103574;1300;24225;-28
2022/04/19 11:12:08;;;;;;;11.00;6.40;;;;;;;7.53;69.46;99030.48;103598;1302;24321;-25
2022/04/19 11:14:40;;;;;;;18.90;14.60;;;;;;;7.63;68.36;99028.14;103563;1301;22512;-28
2022/04/19 11:17:16;;;;;;;12.20;7.20;;;;;;;7.58;68.29;99033.09;103551;1300;23572;-28
2022/04/19 11:19:51;;;;;;;11.40;6.50;;;;;;;7.16;68.40;99038.86;103543;1300;22960;-25
2022/04/19 11:22:24;;;;;;;6.00;4.70;;;;;;;7.35;67.94;99037.30;103546;1300;23802;-24
2022/04/19 11:25:00;;;;;;;6.50;5.60;;;;;;;7.55;68.25;99041.25;103579;1302;23751;-28
2022/04/19 11:27:36;;;;;;;7.10;6.20;;;;;;;7.81;66.72;99041.28;103533;1301;25129;-30
2022/04/19 11:30:12;;;;;;;6.90;5.40;;;;;;;7.49;67.35;99043.80;103531;1300;22936;-25
2022/04/19 11:32:41;;;;;;;8.60;7.30;;;;;;;7.56;67.54;99049.39;103565;1300;22913;-29
2022/04/19 11:35:15;;;;;;;6.40;5.60;;;;;;;7.79;66.48;99045.30;103618;1300;25025;-25
2022/04/19 11:37:44;;;;;;;8.90;6.70;;;;;;;8.11;64.96;99038.85;103563;1300;24179;-29
2022/04/19 11:47:54;;;;;;;11.20;7.70;;;;;;;8.31;64.02;99041.30;103637;1302;25119;-28
2022/04/19 11:50:25;;;;;;;16.10;6.00;;;;;;;8.26;64.38;99046.10;103608;1300;22506;-25
2022/04/19 11:52:55;;;;;;;7.40;4.60;;;;;;;8.39;63.57;99042.86;103575;1300;22998;-31
2022/04/19 11:55:27;;;;;;;7.20;6.40;;;;;;;8.23;63.70;99046.89;103650;1302;24308;-25
2022/04/19 11:58:02;;;;;;;7.50;6.20;;;;;;;8.20;63.75;99042.38;103555;1300;23528;-29
2022/04/19 12:00:31;;;;;;;7.10;5.80;;;;;;;8.41;62.07;99051.08;103481;1302;24274;-29
2022/04/19 12:03:02;;;;;;;9.80;6.40;;;;;;;8.06;62.89;99052.00;103499;1300;24062;-25
2022/04/19 12:05:32;;;;;;;43.90;14.90;;;;;;;8.21;62.75;99050.29;103572;1300;24094;-27
2022/04/19 12:08:01;;;;;;;15.00;11.30;;;;;;;8.45;62.87;99041.95;103528;1300;22498;-28
2022/04/19 12:10:29;;;;;;;8.80;6.80;;;;;;;8.30;62.76;99049.02;103559;1301;24301;-25
2022/04/19 12:12:58;;;;;;;13.30;8.10;;;;;;;8.11;63.09;99046.25;103195;1300;535620;-26
2022/04/19 12:15:40;;;;;;;14.50;8.00;;;;;;;7.77;65.23;99045.78;103510;1302;23607;-25
2022/04/19 12:18:10;;;;;;;24.10;10.60;;;;;;;8.34;63.49;99047.83;103547;1300;23766;-29
2022/04/19 12:20:42;;;;;;;7.60;6.40;;;;;;;8.35;62.99;99051.75;103583;1300;23642;-25
2022/04/19 12:23:17;;;;;;;6.80;5.10;;;;;;;8.21;62.69;99050.72;103577;1302;25268;-28
2022/04/19 12:25:58;;;;;;;9.30;6.70;;;;;;;8.43;61.37;99047.71;103550;1300;22514;-25